Mississippiborg — PCGZ — position and weather

sailwx.info

Track history (hours):
 
Tides and Currents Weather Stations Pressure Air Temp Water Temp Dewpoint Dewpoint Depression Visibility Wind Speed Wind Dir Waves Ship Positions

Mississippiborg

Last reported at 2017-Nov-17 18:58 UTC. Time now 2017-Nov-18 08:55 UTC.
Position N 35°59' W 005°10'.

Length 80 m; draft 5.1 m.

Type: Ship (hazmat cat B). MMSI: 244836543.

Date/timePositionNaut miles runAvg speedWind from/ knotsBaromVisibWave heightAir tempDewpointWater temp
2017-Nov-17 18:58N 35°59' W 005°10'511.2
2017-Nov-17 18:31N 35°58' W 005°17'610.9
2017-Nov-17 18:00N 35°58' W 005°24'20110.6
2017-Nov-16 23:01N 36°41' W 009°27'010.9
2017-Nov-16 23:00N 36°41' W 009°27'1010.6
2017-Nov-16 22:03N 36°49' W 009°34'010.9
2017-Nov-16 22:00N 36°50' W 009°35'2111.3
2017-Nov-16 20:09N 37°10' W 009°40'211.3
2017-Nov-16 19:59N 37°12' W 009°41'511.3
2017-Nov-16 19:30N 37°17' W 009°42'611.4
2017-Nov-16 18:57N 37°23' W 009°44'511.5
2017-Nov-16 18:30N 37°28' W 009°45'611.6
2017-Nov-16 18:00N 37°34' W 009°47'611.7
2017-Nov-16 17:30N 37°40' W 009°49'611.6
2017-Nov-16 17:00N 37°45' W 009°50'611.6
2017-Nov-16 16:30N 37°51' W 009°52'611.4
2017-Nov-16 16:00N 37°57' W 009°54'611.4
2017-Nov-16 15:30N 38°02' W 009°56'611.4
2017-Nov-16 15:00N 38°08' W 009°57'611.4
2017-Nov-16 14:30N 38°13' W 009°59'611.5
2017-Nov-16 14:00N 38°19' W 010°00'611.4
2017-Nov-16 13:30N 38°24' W 010°02'611.5
2017-Nov-16 13:00N 38°30' W 010°04'611.5
2017-Nov-16 12:30N 38°36' W 010°05'611.0
2017-Nov-16 12:00N 38°41' W 010°07'611.3
2017-Nov-16 11:30N 38°47' W 010°07'611.1
2017-Nov-16 11:00N 38°52' W 010°07'611.2
2017-Nov-16 10:30N 38°58' W 010°07'511.0
2017-Nov-16 10:00N 39°03' W 010°07'611.5
2017-Nov-16 09:30N 39°09' W 010°07'611.2
2017-Nov-16 09:00N 39°15' W 010°07'611.0
2017-Nov-16 08:30N 39°20' W 010°07'611.4
2017-Nov-16 08:00N 39°26' W 010°07'611.2
2017-Nov-16 07:30N 39°31' W 010°07'611.0
2017-Nov-16 07:00N 39°37' W 010°07'510.8
2017-Nov-16 06:30N 39°42' W 010°07'510.9
2017-Nov-16 06:00N 39°48' W 010°07'711.2
2017-Nov-16 05:24N 39°54' W 010°07'511.5
2017-Nov-16 05:00N 39°59' W 010°07'46810.6
2017-Nov-14 09:00N 47°27' W 006°59'611.3
2017-Nov-14 08:30N 47°32' W 006°55'711.1
2017-Nov-14 07:50N 47°38' W 006°50'811.1
2017-Nov-14 07:08N 47°45' W 006°45'1411.8
2017-Nov-14 05:55N 47°58' W 006°35'812.0
2017-Nov-14 05:18N 48°04' W 006°29'3611.7
2017-Nov-14 02:12N 48°36' W 006°04'910.6
2017-Nov-14 01:19N 48°44' W 005°58'510.3
2017-Nov-14 00:50N 48°49' W 005°54'310.1
2017-Nov-14 00:30N 48°52' W 005°51'6 9.7
2017-Nov-13 23:53N 48°56' W 005°46'510.0
2017-Nov-13 23:25N 48°59' W 005°39'510.0
2017-Nov-13 22:54N 49°01' W 005°33'23411.2
2017-Nov-13 02:00N 50°32' E 000°02'611.4
2017-Nov-13 01:30N 50°34' E 000°11'612.0
2017-Nov-13 01:00N 50°35' E 000°20'612.4
2017-Nov-13 00:30N 50°37' E 000°29'612.4
2017-Nov-13 00:00N 50°39' E 000°38'612.8
2017-Nov-12 23:30N 50°43' E 000°46'612.9
2017-Nov-12 23:00N 50°47' E 000°54'612.6
2017-Nov-12 22:30N 50°51' E 001°03'612.4
2017-Nov-12 22:00N 50°55' E 001°10'612.1
2017-Nov-12 21:30N 50°59' E 001°17'611.6
2017-Nov-12 21:00N 51°02' E 001°24'611.2
2017-Nov-12 20:30N 51°06' E 001°31'510.6
2017-Nov-12 20:00N 51°09' E 001°38'510.1
2017-Nov-12 19:30N 51°13' E 001°44'510.2
2017-Nov-12 19:00N 51°17' E 001°49'510.6
2017-Nov-12 18:30N 51°21' E 001°53'510.9
2017-Nov-12 18:00N 51°26' E 001°57'611.0
2017-Nov-12 17:31N 51°30' E 002°03'611.1
2017-Nov-12 17:00N 51°35' E 002°08'611.3
2017-Nov-12 16:29N 51°39' E 002°14'711.3
2017-Nov-12 15:54N 51°44' E 002°22'23910.4
2017-Nov-11 16:51N 55°04' E 006°00'410.3
2017-Nov-11 16:25N 55°08' E 006°04'410.1
2017-Nov-11 15:59N 55°12' E 006°08'205 8.8
2017-Nov-10 16:45N 57°45' E 010°15'2 9.2
2017-Nov-10 16:30N 57°45' E 010°19'5 9.6
2017-Nov-10 16:00N 57°47' E 010°28'5 9.7
2017-Nov-10 15:30N 57°47' E 010°37'5 9.7
2017-Nov-10 15:00N 57°48' E 010°46'4 9.0
2017-Nov-10 14:30N 57°44' E 010°42'3 6.2
2017-Nov-10 13:58N 57°43' E 010°35'0 0.0
2017-Nov-10 13:19N 57°43' E 010°35'0 0.0
2017-Nov-10 12:52N 57°43' E 010°35'0 0.0
2017-Nov-10 12:16N 57°43' E 010°35'0 0.0
2017-Nov-10 11:49N 57°43' E 010°35'0 0.0
2017-Nov-10 11:25N 57°43' E 010°35'0 0.0
2017-Nov-10 10:58N 57°43' E 010°35'0 0.0
2017-Nov-10 10:19N 57°43' E 010°35'0 0.0
2017-Nov-10 09:55N 57°43' E 010°35'0 0.0
2017-Nov-10 09:19N 57°43' E 010°35'0 0.0
2017-Nov-10 08:55N 57°43' E 010°35'0 0.0
2017-Nov-10 08:22N 57°43' E 010°35'0 0.0
2017-Nov-10 07:55N 57°43' E 010°35'0 0.0
2017-Nov-10 06:52N 57°43' E 010°35'0 0.0
2017-Nov-10 06:28N 57°43' E 010°35'0 0.0
2017-Nov-10 05:55N 57°43' E 010°35'0 0.7
2017-Nov-10 05:30N 57°43' E 010°36'4 6.9
2017-Nov-10 04:58N 57°42' E 010°43'5 8.6
2017-Nov-10 04:27N 57°41' E 010°51'4 8.9
2017-Nov-10 04:00N 57°40' E 010°58'5 9.2
2017-Nov-10 03:30N 57°38' E 011°06'5 9.9
2017-Nov-10 03:01N 57°35' E 011°13'510.0
2017-Nov-10 02:31N 57°31' E 011°20'510.0
2017-Nov-10 02:00N 57°28' E 011°26'510.3
2017-Nov-10 01:30N 57°23' E 011°30'510.1
2017-Nov-10 01:00N 57°18' E 011°33'510.1
2017-Nov-10 00:30N 57°13' E 011°36'5 9.8
2017-Nov-10 00:01N 57°09' E 011°39'6 9.5
2017-Nov-09 23:24N 57°04' E 011°43'54 9.3
2017-Nov-09 17:38N 56°15' E 012°25'111.2
2017-Nov-09 17:30N 56°14' E 012°26'611.5
2017-Nov-09 17:00N 56°09' E 012°31'611.6
2017-Nov-09 16:31N 56°04' E 012°38'510.9
2017-Nov-09 16:00N 55°59' E 012°42'510.6
2017-Nov-09 15:30N 55°54' E 012°45'510.4
2017-Nov-09 15:01N 55°49' E 012°43'510.7
2017-Nov-09 14:31N 55°44' E 012°41'510.6
2017-Nov-09 14:00N 55°39' E 012°42'510.2
2017-Nov-09 13:31N 55°34' E 012°42'510.2
2017-Nov-09 13:00N 55°29' E 012°42'510.5
2017-Nov-09 12:31N 55°23' E 012°42'510.3
2017-Nov-09 12:01N 55°18' E 012°42'510.0
2017-Nov-09 11:30N 55°16' E 012°51'510.0
2017-Nov-09 11:01N 55°16' E 012°59'510.0
2017-Nov-09 10:31N 55°16' E 013°08'510.0
2017-Nov-09 10:01N 55°15' E 013°17'2810.4
2017-Nov-09 07:18N 55°14' E 014°06'410.8
2017-Nov-09 06:58N 55°14' E 014°12'510.2
2017-Nov-09 06:27N 55°17' E 014°20'511.0
2017-Nov-09 06:00N 55°20' E 014°26'510.5
2017-Nov-09 05:30N 55°24' E 014°32'510.2
2017-Nov-09 05:00N 55°28' E 014°38'510.7
2017-Nov-09 04:30N 55°30' E 014°46'510.6
2017-Nov-09 04:00N 55°33' E 014°55'510.7
2017-Nov-09 03:31N 55°36' E 015°03'510.6
2017-Nov-09 03:00N 55°38' E 015°11'510.6
2017-Nov-09 02:30N 55°41' E 015°19'510.8
2017-Nov-09 02:01N 55°44' E 015°27'510.6
2017-Nov-09 01:31N 55°46' E 015°35'510.6
2017-Nov-09 01:01N 55°49' E 015°44'510.6
2017-Nov-09 00:30N 55°52' E 015°51'510.5
2017-Nov-09 00:00N 55°55' E 015°59'510.7
2017-Nov-08 23:31N 55°57' E 016°08'510.6
2017-Nov-08 23:00N 55°60' E 016°16'510.5
2017-Nov-08 22:31N 56°02' E 016°24'510.6
2017-Nov-08 22:01N 56°05' E 016°33'510.7
2017-Nov-08 21:30N 56°08' E 016°41'510.3
2017-Nov-08 21:00N 56°12' E 016°47'510.3
2017-Nov-08 20:30N 56°16' E 016°50'510.4
2017-Nov-08 20:00N 56°21' E 016°53'510.3
2017-Nov-08 19:30N 56°26' E 016°57'21810.2
2017-Nov-07 22:03N 59°47' E 019°38'111.1
2017-Nov-07 21:58N 59°48' E 019°36'510.2
2017-Nov-07 21:30N 59°52' E 019°32'610.7
2017-Nov-07 20:58N 59°56' E 019°25'511.0
2017-Nov-07 20:30N 60°00' E 019°19'611.2
2017-Nov-07 20:01N 60°05' E 019°11'511.0
2017-Nov-07 19:31N 60°09' E 019°05'510.2
2017-Nov-07 19:00N 60°14' E 019°01'  
Track history (hours):
 
Tides and Currents Weather Stations Pressure Air Temp Water Temp Dewpoint Dewpoint Depression Visibility Wind Speed Wind Dir Waves Ship Positions

Mississippiborg

Last reported at 2017-Nov-17 18:58 UTC. Time now 2017-Nov-18 08:55 UTC.
Position N 35°59' W 005°10'.

Length 80 m; draft 5.1 m.

Type: Ship (hazmat cat B). MMSI: 244836543.

Date/timePositionNaut miles runAvg speedWind from/ knotsBaromVisibWave heightAir tempDewpointWater temp
2017-Nov-17 18:58N 35°59' W 005°10'511.2
2017-Nov-17 18:31N 35°58' W 005°17'610.9
2017-Nov-17 18:00N 35°58' W 005°24'20110.6
2017-Nov-16 23:01N 36°41' W 009°27'010.9
2017-Nov-16 23:00N 36°41' W 009°27'1010.6
2017-Nov-16 22:03N 36°49' W 009°34'010.9
2017-Nov-16 22:00N 36°50' W 009°35'2111.3
2017-Nov-16 20:09N 37°10' W 009°40'211.3
2017-Nov-16 19:59N 37°12' W 009°41'511.3
2017-Nov-16 19:30N 37°17' W 009°42'611.4
2017-Nov-16 18:57N 37°23' W 009°44'511.5
2017-Nov-16 18:30N 37°28' W 009°45'611.6
2017-Nov-16 18:00N 37°34' W 009°47'611.7
2017-Nov-16 17:30N 37°40' W 009°49'611.6
2017-Nov-16 17:00N 37°45' W 009°50'611.6
2017-Nov-16 16:30N 37°51' W 009°52'611.4
2017-Nov-16 16:00N 37°57' W 009°54'611.4
2017-Nov-16 15:30N 38°02' W 009°56'611.4
2017-Nov-16 15:00N 38°08' W 009°57'611.4
2017-Nov-16 14:30N 38°13' W 009°59'611.5
2017-Nov-16 14:00N 38°19' W 010°00'611.4
2017-Nov-16 13:30N 38°24' W 010°02'611.5
2017-Nov-16 13:00N 38°30' W 010°04'611.5
2017-Nov-16 12:30N 38°36' W 010°05'611.0
2017-Nov-16 12:00N 38°41' W 010°07'611.3
2017-Nov-16 11:30N 38°47' W 010°07'611.1
2017-Nov-16 11:00N 38°52' W 010°07'611.2
2017-Nov-16 10:30N 38°58' W 010°07'511.0
2017-Nov-16 10:00N 39°03' W 010°07'611.5
2017-Nov-16 09:30N 39°09' W 010°07'611.2
2017-Nov-16 09:00N 39°15' W 010°07'611.0
2017-Nov-16 08:30N 39°20' W 010°07'611.4
2017-Nov-16 08:00N 39°26' W 010°07'611.2
2017-Nov-16 07:30N 39°31' W 010°07'611.0
2017-Nov-16 07:00N 39°37' W 010°07'510.8
2017-Nov-16 06:30N 39°42' W 010°07'510.9
2017-Nov-16 06:00N 39°48' W 010°07'711.2
2017-Nov-16 05:24N 39°54' W 010°07'511.5
2017-Nov-16 05:00N 39°59' W 010°07'46810.6
2017-Nov-14 09:00N 47°27' W 006°59'611.3
2017-Nov-14 08:30N 47°32' W 006°55'711.1
2017-Nov-14 07:50N 47°38' W 006°50'811.1
2017-Nov-14 07:08N 47°45' W 006°45'1411.8
2017-Nov-14 05:55N 47°58' W 006°35'812.0
2017-Nov-14 05:18N 48°04' W 006°29'3611.7
2017-Nov-14 02:12N 48°36' W 006°04'910.6
2017-Nov-14 01:19N 48°44' W 005°58'510.3
2017-Nov-14 00:50N 48°49' W 005°54'310.1
2017-Nov-14 00:30N 48°52' W 005°51'6 9.7
2017-Nov-13 23:53N 48°56' W 005°46'510.0
2017-Nov-13 23:25N 48°59' W 005°39'510.0
2017-Nov-13 22:54N 49°01' W 005°33'23411.2
2017-Nov-13 02:00N 50°32' E 000°02'611.4
2017-Nov-13 01:30N 50°34' E 000°11'612.0
2017-Nov-13 01:00N 50°35' E 000°20'612.4
2017-Nov-13 00:30N 50°37' E 000°29'612.4
2017-Nov-13 00:00N 50°39' E 000°38'612.8
2017-Nov-12 23:30N 50°43' E 000°46'612.9
2017-Nov-12 23:00N 50°47' E 000°54'612.6
2017-Nov-12 22:30N 50°51' E 001°03'612.4
2017-Nov-12 22:00N 50°55' E 001°10'612.1
2017-Nov-12 21:30N 50°59' E 001°17'611.6
2017-Nov-12 21:00N 51°02' E 001°24'611.2
2017-Nov-12 20:30N 51°06' E 001°31'510.6
2017-Nov-12 20:00N 51°09' E 001°38'510.1
2017-Nov-12 19:30N 51°13' E 001°44'510.2
2017-Nov-12 19:00N 51°17' E 001°49'510.6
2017-Nov-12 18:30N 51°21' E 001°53'510.9
2017-Nov-12 18:00N 51°26' E 001°57'611.0
2017-Nov-12 17:31N 51°30' E 002°03'611.1
2017-Nov-12 17:00N 51°35' E 002°08'611.3
2017-Nov-12 16:29N 51°39' E 002°14'711.3
2017-Nov-12 15:54N 51°44' E 002°22'23910.4
2017-Nov-11 16:51N 55°04' E 006°00'410.3
2017-Nov-11 16:25N 55°08' E 006°04'410.1
2017-Nov-11 15:59N 55°12' E 006°08'205 8.8
2017-Nov-10 16:45N 57°45' E 010°15'2 9.2
2017-Nov-10 16:30N 57°45' E 010°19'5 9.6
2017-Nov-10 16:00N 57°47' E 010°28'5 9.7
2017-Nov-10 15:30N 57°47' E 010°37'5 9.7
2017-Nov-10 15:00N 57°48' E 010°46'4 9.0
2017-Nov-10 14:30N 57°44' E 010°42'3 6.2
2017-Nov-10 13:58N 57°43' E 010°35'0 0.0
2017-Nov-10 13:19N 57°43' E 010°35'0 0.0
2017-Nov-10 12:52N 57°43' E 010°35'0 0.0
2017-Nov-10 12:16N 57°43' E 010°35'0 0.0
2017-Nov-10 11:49N 57°43' E 010°35'0 0.0
2017-Nov-10 11:25N 57°43' E 010°35'0 0.0
2017-Nov-10 10:58N 57°43' E 010°35'0 0.0
2017-Nov-10 10:19N 57°43' E 010°35'0 0.0
2017-Nov-10 09:55N 57°43' E 010°35'0 0.0
2017-Nov-10 09:19N 57°43' E 010°35'0 0.0
2017-Nov-10 08:55N 57°43' E 010°35'0 0.0
2017-Nov-10 08:22N 57°43' E 010°35'0 0.0
2017-Nov-10 07:55N 57°43' E 010°35'0 0.0
2017-Nov-10 06:52N 57°43' E 010°35'0 0.0
2017-Nov-10 06:28N 57°43' E 010°35'0 0.0
2017-Nov-10 05:55N 57°43' E 010°35'0 0.7
2017-Nov-10 05:30N 57°43' E 010°36'4 6.9
2017-Nov-10 04:58N 57°42' E 010°43'5 8.6
2017-Nov-10 04:27N 57°41' E 010°51'4 8.9
2017-Nov-10 04:00N 57°40' E 010°58'5 9.2
2017-Nov-10 03:30N 57°38' E 011°06'5 9.9
2017-Nov-10 03:01N 57°35' E 011°13'510.0
2017-Nov-10 02:31N 57°31' E 011°20'510.0
2017-Nov-10 02:00N 57°28' E 011°26'510.3
2017-Nov-10 01:30N 57°23' E 011°30'510.1
2017-Nov-10 01:00N 57°18' E 011°33'510.1
2017-Nov-10 00:30N 57°13' E 011°36'5 9.8
2017-Nov-10 00:01N 57°09' E 011°39'6 9.5
2017-Nov-09 23:24N 57°04' E 011°43'54 9.3
2017-Nov-09 17:38N 56°15' E 012°25'111.2
2017-Nov-09 17:30N 56°14' E 012°26'611.5
2017-Nov-09 17:00N 56°09' E 012°31'611.6
2017-Nov-09 16:31N 56°04' E 012°38'510.9
2017-Nov-09 16:00N 55°59' E 012°42'510.6
2017-Nov-09 15:30N 55°54' E 012°45'510.4
2017-Nov-09 15:01N 55°49' E 012°43'510.7
2017-Nov-09 14:31N 55°44' E 012°41'510.6
2017-Nov-09 14:00N 55°39' E 012°42'510.2
2017-Nov-09 13:31N 55°34' E 012°42'510.2
2017-Nov-09 13:00N 55°29' E 012°42'510.5
2017-Nov-09 12:31N 55°23' E 012°42'510.3
2017-Nov-09 12:01N 55°18' E 012°42'510.0
2017-Nov-09 11:30N 55°16' E 012°51'510.0
2017-Nov-09 11:01N 55°16' E 012°59'510.0
2017-Nov-09 10:31N 55°16' E 013°08'510.0
2017-Nov-09 10:01N 55°15' E 013°17'2810.4
2017-Nov-09 07:18N 55°14' E 014°06'410.8
2017-Nov-09 06:58N 55°14' E 014°12'510.2
2017-Nov-09 06:27N 55°17' E 014°20'511.0
2017-Nov-09 06:00N 55°20' E 014°26'510.5
2017-Nov-09 05:30N 55°24' E 014°32'510.2
2017-Nov-09 05:00N 55°28' E 014°38'510.7
2017-Nov-09 04:30N 55°30' E 014°46'510.6
2017-Nov-09 04:00N 55°33' E 014°55'510.7
2017-Nov-09 03:31N 55°36' E 015°03'510.6
2017-Nov-09 03:00N 55°38' E 015°11'510.6
2017-Nov-09 02:30N 55°41' E 015°19'510.8
2017-Nov-09 02:01N 55°44' E 015°27'510.6
2017-Nov-09 01:31N 55°46' E 015°35'510.6
2017-Nov-09 01:01N 55°49' E 015°44'510.6
2017-Nov-09 00:30N 55°52' E 015°51'510.5
2017-Nov-09 00:00N 55°55' E 015°59'510.7
2017-Nov-08 23:31N 55°57' E 016°08'510.6
2017-Nov-08 23:00N 55°60' E 016°16'510.5
2017-Nov-08 22:31N 56°02' E 016°24'510.6
2017-Nov-08 22:01N 56°05' E 016°33'510.7
2017-Nov-08 21:30N 56°08' E 016°41'510.3
2017-Nov-08 21:00N 56°12' E 016°47'510.3
2017-Nov-08 20:30N 56°16' E 016°50'510.4
2017-Nov-08 20:00N 56°21' E 016°53'510.3
2017-Nov-08 19:30N 56°26' E 016°57'21810.2
2017-Nov-07 22:03N 59°47' E 019°38'111.1
2017-Nov-07 21:58N 59°48' E 019°36'510.2
2017-Nov-07 21:30N 59°52' E 019°32'610.7
2017-Nov-07 20:58N 59°56' E 019°25'511.0
2017-Nov-07 20:30N 60°00' E 019°19'611.2
2017-Nov-07 20:01N 60°05' E 019°11'511.0
2017-Nov-07 19:31N 60°09' E 019°05'510.2
2017-Nov-07 19:00N 60°14' E 019°01'  

Dump ship's entire track history